createdAt,value
2022-10-17T00:00:38.855Z,20.90
2022-10-17T00:02:40.457Z,20.90
2022-10-17T00:04:42.151Z,20.90
2022-10-17T00:06:43.871Z,20.90
2022-10-17T00:08:45.493Z,20.90
2022-10-17T00:10:57.076Z,20.90
2022-10-17T00:12:58.684Z,20.90
2022-10-17T00:15:00.346Z,20.90
2022-10-17T00:17:02.074Z,20.90
2022-10-17T00:19:05.654Z,20.90
2022-10-17T00:21:15.401Z,20.90
2022-10-17T00:23:17.096Z,20.90
2022-10-17T00:25:18.856Z,20.90
2022-10-17T00:27:20.444Z,20.90
2022-10-17T00:29:22.127Z,20.90
2022-10-17T00:31:25.220Z,20.90
2022-10-17T00:33:28.388Z,20.90
2022-10-17T00:35:30.115Z,20.90
2022-10-17T00:37:32.682Z,20.90
2022-10-17T00:39:34.299Z,20.90
2022-10-17T00:41:35.903Z,20.90
2022-10-17T00:44:03.719Z,20.90
2022-10-17T00:46:05.363Z,20.90
2022-10-17T00:48:10.189Z,20.90
2022-10-17T00:50:13.350Z,20.90
2022-10-17T00:52:20.246Z,20.90
2022-10-17T00:54:27.113Z,20.80
2022-10-17T00:56:29.636Z,20.80
2022-10-17T00:58:31.639Z,20.90
2022-10-17T01:00:33.472Z,20.90
2022-10-17T01:02:35.222Z,20.90
2022-10-17T01:04:38.948Z,20.90
2022-10-17T01:06:40.565Z,20.90
2022-10-17T01:08:42.243Z,20.90
2022-10-17T01:11:01.985Z,20.90
2022-10-17T01:13:12.377Z,20.90
2022-10-17T01:15:42.933Z,20.80
2022-10-17T01:18:04.744Z,20.80
2022-10-17T01:20:15.427Z,20.80
2022-10-17T01:22:20.106Z,20.90
2022-10-17T01:24:40.232Z,20.90
2022-10-17T01:26:50.822Z,20.90
2022-10-17T01:29:10.404Z,20.90
2022-10-17T01:31:20.162Z,20.80
2022-10-17T01:33:46.164Z,20.80
2022-10-17T01:36:03.242Z,20.80
2022-10-17T01:38:10.812Z,20.80
2022-10-17T01:40:22.581Z,20.80
2022-10-17T01:42:39.389Z,20.80
2022-10-17T01:44:56.332Z,20.80
2022-10-17T01:47:04.562Z,20.80
2022-10-17T01:49:10.024Z,20.80
2022-10-17T01:51:19.280Z,20.80
2022-10-17T01:53:56.775Z,20.80
2022-10-17T01:56:01.628Z,20.80
2022-10-17T01:58:41.071Z,20.80
2022-10-17T02:00:45.323Z,20.80
2022-10-17T02:02:52.201Z,20.80
2022-10-17T02:04:56.699Z,20.90
2022-10-17T02:07:09.488Z,20.80
2022-10-17T02:09:23.939Z,20.80
2022-10-17T02:11:26.913Z,20.80
2022-10-17T02:13:37.115Z,20.80
2022-10-17T02:16:10.319Z,20.80
2022-10-17T02:18:28.623Z,20.80
2022-10-17T02:20:33.006Z,20.80
2022-10-17T02:23:04.427Z,20.80
2022-10-17T02:25:44.154Z,20.80
2022-10-17T02:27:55.822Z,20.80
2022-10-17T02:30:19.720Z,20.80
2022-10-17T02:32:34.036Z,20.80
2022-10-17T02:34:41.612Z,20.80
2022-10-17T02:36:53.200Z,20.80
2022-10-17T02:38:55.837Z,20.80
2022-10-17T02:40:58.074Z,20.80
2022-10-17T02:43:02.789Z,20.80
2022-10-17T02:45:05.828Z,20.80
2022-10-17T02:47:14.204Z,20.80
2022-10-17T02:49:21.371Z,20.80
2022-10-17T02:51:41.344Z,20.80
2022-10-17T02:54:00.686Z,20.80
2022-10-17T02:56:11.416Z,20.80
2022-10-17T02:58:28.596Z,20.80
2022-10-17T03:00:31.435Z,20.80
2022-10-17T03:02:48.147Z,20.80
2022-10-17T03:04:50.466Z,20.80
2022-10-17T03:06:52.154Z,20.80
2022-10-17T03:08:53.752Z,20.80
2022-10-17T03:10:55.539Z,20.80
2022-10-17T03:12:57.135Z,20.80
2022-10-17T03:14:58.757Z,20.80
2022-10-17T03:17:00.625Z,20.80
2022-10-17T03:19:02.271Z,20.80
2022-10-17T03:21:03.960Z,20.80
2022-10-17T03:23:05.619Z,20.80
2022-10-17T03:25:07.530Z,20.80
2022-10-17T03:27:09.205Z,20.80
2022-10-17T03:29:10.849Z,20.80
2022-10-17T03:31:17.525Z,20.80
2022-10-17T03:33:19.145Z,20.70
2022-10-17T03:35:20.819Z,20.80
2022-10-17T03:37:22.455Z,20.80
2022-10-17T03:39:24.163Z,20.80
2022-10-17T03:41:25.778Z,20.80
2022-10-17T03:43:27.412Z,20.70
2022-10-17T03:45:29.021Z,20.80
2022-10-17T03:47:30.974Z,20.80
2022-10-17T03:49:32.803Z,20.70
2022-10-17T03:51:35.125Z,20.70
2022-10-17T03:53:36.854Z,20.70
2022-10-17T03:55:38.436Z,20.70
2022-10-17T03:57:42.189Z,20.70
2022-10-17T03:59:46.737Z,20.70
2022-10-17T04:01:48.452Z,20.70
2022-10-17T04:03:55.487Z,20.70
2022-10-17T04:06:00.211Z,20.80
2022-10-17T04:08:04.686Z,20.80
2022-10-17T04:10:07.158Z,20.80
2022-10-17T04:12:08.800Z,20.80
2022-10-17T04:14:11.155Z,20.80
2022-10-17T04:16:15.819Z,20.80
2022-10-17T04:18:17.397Z,20.80
2022-10-17T04:20:19.077Z,20.80
2022-10-17T04:22:20.669Z,20.80
2022-10-17T04:24:22.506Z,20.90
2022-10-17T04:26:24.468Z,20.80
2022-10-17T04:28:27.825Z,20.80
2022-10-17T04:30:29.581Z,20.80
2022-10-17T04:32:31.458Z,20.80
2022-10-17T04:34:33.348Z,20.80
2022-10-17T04:36:34.983Z,20.80
2022-10-17T04:38:37.177Z,20.80
2022-10-17T04:40:38.788Z,20.80
2022-10-17T04:42:40.366Z,20.80
2022-10-17T04:44:42.221Z,20.90
2022-10-17T04:46:43.854Z,20.90
2022-10-17T04:48:45.514Z,20.90
2022-10-17T04:51:07.675Z,20.90
2022-10-17T04:53:09.473Z,20.80
2022-10-17T04:55:11.093Z,20.80
2022-10-17T04:57:12.776Z,20.80
2022-10-17T04:59:14.497Z,20.80
2022-10-17T05:01:19.036Z,20.80
2022-10-17T05:03:20.655Z,20.80
2022-10-17T05:05:23.232Z,20.80
2022-10-17T05:07:24.829Z,20.90
2022-10-17T05:09:27.090Z,20.90
2022-10-17T05:11:29.557Z,20.90
2022-10-17T05:13:31.735Z,20.90
2022-10-17T05:15:33.892Z,20.80
2022-10-17T05:17:35.490Z,20.80
2022-10-17T05:19:37.118Z,20.80
2022-10-17T05:21:39.072Z,20.80
2022-10-17T05:23:40.685Z,20.80
2022-10-17T05:25:42.379Z,20.80
2022-10-17T05:27:44.008Z,20.80
2022-10-17T05:29:45.789Z,20.70
2022-10-17T05:31:47.444Z,20.80
2022-10-17T05:33:49.133Z,20.80
2022-10-17T05:35:51.148Z,20.70
2022-10-17T05:37:52.823Z,20.70
2022-10-17T05:39:54.468Z,20.70
2022-10-17T05:41:56.056Z,20.80
2022-10-17T05:43:59.422Z,20.80
2022-10-17T05:46:05.956Z,20.80
2022-10-17T05:48:08.941Z,20.70
2022-10-17T05:50:10.900Z,20.70
2022-10-17T05:52:12.512Z,20.70
2022-10-17T05:54:14.109Z,20.60
2022-10-17T05:56:15.771Z,20.70
2022-10-17T05:58:21.972Z,20.60
2022-10-17T06:00:24.289Z,20.70
2022-10-17T06:02:26.005Z,20.70
2022-10-17T06:04:27.828Z,20.60
2022-10-17T06:06:29.445Z,20.60
2022-10-17T06:08:31.827Z,20.60
2022-10-17T06:10:33.546Z,20.60
2022-10-17T06:12:35.223Z,20.60
2022-10-17T06:14:36.994Z,20.60
2022-10-17T06:16:38.700Z,20.60
2022-10-17T06:18:40.376Z,20.60
2022-10-17T06:20:45.326Z,20.60
2022-10-17T06:22:47.797Z,20.60
2022-10-17T06:24:49.451Z,20.60
2022-10-17T06:26:51.166Z,20.60
2022-10-17T06:28:55.511Z,20.60
2022-10-17T06:30:57.531Z,20.60
2022-10-17T06:32:59.127Z,20.50
2022-10-17T06:35:00.731Z,20.60
2022-10-17T06:37:02.391Z,20.60
2022-10-17T06:39:04.120Z,20.50
2022-10-17T06:41:08.749Z,20.50
2022-10-17T06:43:10.617Z,20.50
2022-10-17T06:45:12.282Z,20.60
2022-10-17T06:47:16.545Z,20.50
2022-10-17T06:49:20.889Z,20.50
2022-10-17T06:51:22.488Z,20.50
2022-10-17T06:53:25.007Z,20.50
2022-10-17T06:55:26.685Z,20.50
2022-10-17T06:57:28.584Z,20.50
2022-10-17T06:59:30.403Z,20.60
2022-10-17T07:01:32.627Z,20.50
2022-10-17T07:03:34.602Z,20.60
2022-10-17T07:05:36.220Z,20.50
2022-10-17T07:07:40.149Z,20.50
2022-10-17T07:09:44.741Z,20.60
2022-10-17T07:11:46.461Z,20.50
2022-10-17T07:13:48.626Z,20.50
2022-10-17T07:15:50.315Z,20.50
2022-10-17T07:17:52.028Z,20.50
2022-10-17T07:19:53.637Z,20.50
2022-10-17T07:21:55.657Z,20.50
2022-10-17T07:23:57.283Z,20.50
2022-10-17T07:26:02.865Z,20.60
2022-10-17T07:28:04.714Z,20.60
2022-10-17T07:30:07.177Z,20.60
2022-10-17T07:32:08.868Z,20.60
2022-10-17T07:34:10.465Z,20.60
2022-10-17T07:36:12.937Z,20.60
2022-10-17T07:38:14.572Z,20.70
2022-10-17T07:40:16.264Z,20.70
2022-10-17T07:42:17.927Z,20.70
2022-10-17T07:44:19.860Z,20.70
2022-10-17T07:46:21.551Z,20.70
2022-10-17T07:48:24.822Z,20.70
2022-10-17T07:50:29.300Z,20.70
2022-10-17T07:52:31.715Z,20.70
2022-10-17T07:54:33.663Z,20.70
2022-10-17T07:56:35.986Z,20.80
2022-10-17T07:58:38.204Z,20.80
2022-10-17T08:00:40.115Z,20.80
2022-10-17T08:02:41.866Z,20.80
2022-10-17T08:04:43.522Z,20.80
2022-10-17T08:06:45.253Z,20.80
2022-10-17T08:08:46.882Z,20.80
2022-10-17T08:10:48.504Z,20.90
2022-10-17T08:12:50.077Z,20.90
2022-10-17T08:14:51.712Z,20.90
2022-10-17T08:16:55.124Z,20.90
2022-10-17T08:18:56.767Z,20.90
2022-10-17T08:21:03.155Z,20.90
2022-10-17T08:23:04.792Z,20.90
2022-10-17T08:25:07.411Z,21.00
2022-10-17T08:27:11.483Z,21.00
2022-10-17T08:29:14.819Z,21.00
2022-10-17T08:31:18.961Z,21.00
2022-10-17T08:33:20.572Z,21.10
2022-10-17T08:35:22.326Z,21.10
2022-10-17T08:37:23.946Z,21.10
2022-10-17T08:39:25.744Z,21.10
2022-10-17T08:41:56.403Z,21.10
2022-10-17T08:44:03.148Z,21.10
2022-10-17T08:46:07.821Z,21.10
2022-10-17T08:48:15.606Z,21.20
2022-10-17T08:50:29.248Z,21.20
2022-10-17T08:52:39.793Z,21.20
2022-10-17T08:54:46.967Z,21.20
2022-10-17T08:56:53.561Z,21.30
2022-10-17T08:58:55.187Z,21.30
2022-10-17T09:01:34.344Z,21.30
2022-10-17T09:03:50.849Z,21.30
2022-10-17T09:06:17.802Z,21.30
2022-10-17T09:08:45.550Z,21.40
2022-10-17T09:10:56.104Z,21.40
2022-10-17T09:15:52.599Z,21.40
2022-10-17T09:18:21.100Z,21.50
2022-10-17T09:20:39.184Z,21.50
2022-10-17T09:23:02.314Z,21.50
2022-10-17T09:25:10.060Z,21.50
2022-10-17T09:27:42.255Z,21.50
2022-10-17T09:29:48.143Z,21.50
2022-10-17T09:32:01.447Z,21.50
2022-10-17T09:34:03.651Z,21.50
2022-10-17T09:36:11.897Z,21.60
2022-10-17T09:38:19.358Z,21.60
2022-10-17T09:40:32.744Z,21.60
2022-10-17T09:42:35.924Z,21.60
2022-10-17T09:45:04.625Z,21.60
2022-10-17T09:47:24.363Z,21.60
2022-10-17T09:49:34.854Z,21.70
2022-10-17T09:51:38.798Z,21.70
2022-10-17T09:53:44.874Z,21.70
2022-10-17T09:55:50.812Z,21.70
2022-10-17T09:58:01.767Z,21.70
2022-10-17T10:00:06.406Z,21.70
2022-10-17T10:02:18.132Z,21.70
2022-10-17T10:04:19.765Z,21.70
2022-10-17T10:06:21.766Z,21.70
2022-10-17T10:08:26.285Z,21.70
2022-10-17T10:10:29.311Z,21.80
2022-10-17T10:12:35.069Z,21.80
2022-10-17T10:14:39.611Z,21.80
2022-10-17T10:16:46.195Z,21.80
2022-10-17T10:18:50.871Z,21.90
2022-10-17T10:21:10.954Z,21.90
2022-10-17T10:23:13.451Z,21.90
2022-10-17T10:25:17.229Z,21.90
2022-10-17T10:27:19.453Z,21.90
2022-10-17T10:29:22.962Z,21.90
2022-10-17T10:31:34.560Z,21.90
2022-10-17T10:33:41.882Z,22.00
2022-10-17T10:35:51.809Z,21.90
2022-10-17T10:37:56.344Z,22.00
2022-10-17T10:40:01.641Z,22.00
2022-10-17T10:42:06.337Z,22.00
2022-10-17T10:44:14.283Z,22.10
2022-10-17T10:46:20.955Z,22.10
2022-10-17T10:48:24.213Z,22.00
2022-10-17T10:50:33.834Z,22.10
2022-10-17T10:52:45.217Z,22.10
2022-10-17T10:54:57.204Z,22.20
2022-10-17T10:57:03.268Z,22.30
2022-10-17T10:59:19.020Z,22.30
2022-10-17T11:01:28.671Z,22.30
2022-10-17T11:06:13.683Z,22.30
2022-10-17T11:08:38.450Z,22.40
2022-10-17T11:11:01.305Z,22.40
2022-10-17T11:13:29.037Z,22.40
2022-10-17T11:15:53.882Z,22.40
2022-10-17T11:18:00.752Z,22.40
2022-10-17T11:20:12.319Z,22.50
2022-10-17T11:22:22.928Z,22.50
2022-10-17T11:25:15.087Z,22.50
2022-10-17T11:27:16.744Z,22.60
2022-10-17T11:29:18.401Z,22.60
2022-10-17T11:31:22.965Z,22.70
2022-10-17T11:33:34.833Z,22.70
2022-10-17T11:35:41.354Z,22.70
2022-10-17T11:37:49.349Z,22.80
2022-10-17T11:39:58.613Z,22.80
2022-10-17T11:42:06.926Z,22.80
2022-10-17T11:44:26.436Z,22.90
2022-10-17T11:46:29.306Z,22.90
2022-10-17T11:48:46.671Z,23.00
2022-10-17T11:53:20.445Z,23.00
2022-10-17T11:55:27.845Z,23.10
2022-10-17T11:57:57.444Z,23.10
2022-10-17T12:00:18.493Z,23.10
2022-10-17T12:02:23.071Z,23.20
2022-10-17T12:04:49.661Z,23.20
2022-10-17T12:07:00.950Z,23.20
2022-10-17T12:09:18.109Z,23.20
2022-10-17T12:11:53.517Z,23.20
2022-10-17T12:13:56.756Z,23.30
2022-10-17T12:16:20.903Z,23.30
2022-10-17T12:18:27.233Z,23.30
2022-10-17T12:20:37.069Z,23.30
2022-10-17T12:22:50.623Z,23.30
2022-10-17T12:25:03.330Z,23.30
2022-10-17T12:27:34.399Z,23.30
2022-10-17T12:29:36.134Z,23.30
2022-10-17T12:31:37.874Z,23.30
2022-10-17T12:33:48.912Z,23.30
2022-10-17T12:35:51.161Z,23.30
2022-10-17T12:37:54.388Z,23.30
2022-10-17T12:39:58.886Z,23.30
2022-10-17T12:42:00.531Z,23.30
2022-10-17T12:44:02.139Z,23.30
2022-10-17T12:46:05.007Z,23.30
2022-10-17T12:48:10.122Z,23.30
2022-10-17T12:53:47.161Z,23.30
2022-10-17T12:55:51.752Z,23.30
2022-10-17T12:57:59.928Z,23.30
2022-10-17T13:00:05.329Z,23.30
2022-10-17T13:02:20.059Z,23.30
2022-10-17T13:04:21.999Z,23.30
2022-10-17T13:06:29.755Z,23.30
2022-10-17T13:08:37.391Z,23.30
2022-10-17T13:10:43.007Z,23.20
2022-10-17T13:12:45.579Z,23.20
2022-10-17T13:14:50.021Z,23.20
2022-10-17T13:16:56.276Z,23.20
2022-10-17T13:18:59.383Z,23.20
2022-10-17T13:21:14.796Z,23.20
2022-10-17T13:23:24.013Z,23.20
2022-10-17T13:25:27.385Z,23.20
2022-10-17T13:27:31.828Z,23.20
2022-10-17T13:29:33.779Z,23.20
2022-10-17T13:31:40.189Z,23.10
2022-10-17T13:33:42.302Z,23.20
2022-10-17T13:36:00.713Z,23.20
2022-10-17T13:38:07.427Z,23.20
2022-10-17T13:40:44.406Z,23.20
2022-10-17T13:42:47.703Z,23.20
2022-10-17T13:44:49.512Z,23.20
2022-10-17T13:46:52.098Z,23.30
2022-10-17T13:48:53.911Z,23.30
2022-10-17T13:51:02.438Z,23.30
2022-10-17T13:53:24.491Z,23.30
2022-10-17T13:55:26.168Z,23.30
2022-10-17T13:57:32.068Z,23.20
2022-10-17T13:59:42.187Z,23.30
2022-10-17T14:01:43.884Z,23.20
2022-10-17T14:03:48.869Z,23.20
2022-10-17T14:06:03.771Z,23.20
2022-10-17T14:08:11.834Z,23.20
2022-10-17T14:10:32.249Z,23.20
2022-10-17T14:12:34.414Z,23.20
2022-10-17T14:14:57.960Z,23.20
2022-10-17T14:16:59.354Z,23.20
2022-10-17T14:19:01.085Z,23.20
2022-10-17T14:23:31.352Z,23.10
2022-10-17T14:25:39.477Z,23.20
2022-10-17T14:28:07.990Z,23.10
2022-10-17T14:32:58.914Z,23.10
2022-10-17T14:35:18.845Z,23.10
2022-10-17T14:37:44.220Z,23.10
2022-10-17T14:39:49.272Z,23.10
2022-10-17T14:41:51.971Z,23.10
2022-10-17T14:43:59.067Z,23.10
2022-10-17T14:46:01.599Z,23.10
2022-10-17T14:48:10.347Z,23.10
2022-10-17T14:50:11.900Z,23.00
2022-10-17T14:52:26.769Z,23.00
2022-10-17T14:54:30.154Z,23.00
2022-10-17T14:56:42.485Z,23.00
2022-10-17T14:58:44.083Z,23.00
2022-10-17T15:00:45.786Z,23.00
2022-10-17T15:02:48.470Z,23.00
2022-10-17T15:04:50.121Z,23.00
2022-10-17T15:06:55.457Z,23.00
2022-10-17T15:08:57.792Z,23.10
2022-10-17T15:10:59.374Z,23.00
2022-10-17T15:13:26.749Z,23.00
2022-10-17T15:15:23.760Z,23.10
2022-10-17T15:17:30.582Z,23.00
2022-10-17T15:19:32.244Z,23.10
2022-10-17T15:21:39.541Z,23.10
2022-10-17T15:23:43.765Z,23.10
2022-10-17T15:25:45.416Z,23.00
2022-10-17T15:27:47.330Z,23.10
2022-10-17T15:29:49.639Z,23.00
2022-10-17T15:31:51.312Z,23.10
2022-10-17T15:33:53.470Z,23.00
2022-10-17T15:35:55.512Z,23.00
2022-10-17T15:37:57.255Z,22.90
2022-10-17T15:39:58.967Z,22.90
2022-10-17T15:42:00.690Z,22.90
2022-10-17T15:44:02.284Z,22.90
2022-10-17T15:46:04.023Z,22.90
2022-10-17T15:48:07.379Z,22.90
2022-10-17T15:50:14.484Z,22.90
2022-10-17T15:52:16.625Z,22.90
2022-10-17T15:54:18.407Z,22.90
2022-10-17T15:56:32.138Z,23.00
2022-10-17T15:58:40.313Z,22.90
2022-10-17T16:00:42.280Z,22.90
2022-10-17T16:02:44.958Z,22.80
2022-10-17T16:04:48.454Z,22.90
2022-10-17T16:06:50.076Z,22.80
2022-10-17T16:08:52.308Z,22.80
2022-10-17T16:10:54.151Z,22.80
2022-10-17T16:12:56.189Z,22.80
2022-10-17T16:14:57.808Z,22.90
2022-10-17T16:17:00.162Z,22.90
2022-10-17T16:19:02.480Z,22.90
2022-10-17T16:21:04.356Z,22.90
2022-10-17T16:23:07.667Z,22.90
2022-10-17T16:25:24.692Z,22.90
2022-10-17T16:27:26.612Z,22.90
2022-10-17T16:29:28.284Z,22.90
2022-10-17T16:31:39.413Z,23.00
2022-10-17T16:33:40.953Z,22.90
2022-10-17T16:35:42.602Z,22.80
2022-10-17T16:37:44.314Z,22.80
2022-10-17T16:39:52.135Z,22.80
2022-10-17T16:41:56.284Z,22.80
2022-10-17T16:44:05.160Z,22.90
2022-10-17T16:46:06.843Z,22.90
2022-10-17T16:48:09.597Z,22.90
2022-10-17T16:50:11.401Z,22.90
2022-10-17T16:52:13.557Z,22.90
2022-10-17T16:54:15.172Z,22.90
2022-10-17T16:56:19.350Z,22.90
2022-10-17T16:58:21.024Z,23.00
2022-10-17T17:00:22.746Z,22.90
2022-10-17T17:02:24.389Z,23.00
2022-10-17T17:04:26.029Z,22.90
2022-10-17T17:06:29.239Z,22.90
2022-10-17T17:08:31.843Z,23.00
2022-10-17T17:10:33.556Z,22.90
2022-10-17T17:12:36.142Z,22.80
2022-10-17T17:14:38.825Z,22.80
2022-10-17T17:16:40.554Z,22.80
2022-10-17T17:18:43.397Z,22.80
2022-10-17T17:20:45.090Z,22.80
2022-10-17T17:22:46.722Z,22.80
2022-10-17T17:26:53.225Z,22.70
2022-10-17T17:28:57.125Z,22.70
2022-10-17T17:30:59.301Z,22.70
2022-10-17T17:33:01.128Z,22.70
2022-10-17T17:35:02.800Z,22.70
2022-10-17T17:37:04.482Z,22.60
2022-10-17T17:39:11.343Z,22.60
2022-10-17T17:41:18.358Z,22.60
2022-10-17T17:43:20.357Z,22.60
2022-10-17T17:45:21.992Z,22.60
2022-10-17T17:47:23.655Z,22.60
2022-10-17T17:49:25.312Z,22.60
2022-10-17T17:51:29.352Z,22.60
2022-10-17T17:53:31.309Z,22.60
2022-10-17T17:55:33.840Z,22.60
2022-10-17T17:57:35.491Z,22.60
2022-10-17T17:59:39.003Z,22.50
2022-10-17T18:01:40.963Z,22.60
2022-10-17T18:03:42.589Z,22.60
2022-10-17T18:05:44.244Z,22.60
2022-10-17T18:07:45.875Z,22.70
2022-10-17T18:09:48.007Z,22.70
2022-10-17T18:11:49.689Z,22.70
2022-10-17T18:14:01.172Z,22.70
2022-10-17T18:16:04.145Z,22.70
2022-10-17T18:18:05.938Z,22.70
2022-10-17T18:20:08.564Z,22.70
2022-10-17T18:22:10.625Z,22.60
2022-10-17T18:24:12.324Z,22.70
2022-10-17T18:26:15.589Z,22.60
2022-10-17T18:28:17.225Z,22.60
2022-10-17T18:30:21.179Z,22.60
2022-10-17T18:32:25.741Z,22.50
2022-10-17T18:34:27.508Z,22.50
2022-10-17T18:36:32.179Z,22.50
2022-10-17T18:38:34.238Z,22.50
2022-10-17T18:40:35.835Z,22.50
2022-10-17T18:42:37.506Z,22.50
2022-10-17T18:44:39.149Z,22.50
2022-10-17T18:46:41.546Z,22.50
2022-10-17T18:48:44.946Z,22.50
2022-10-17T18:50:46.961Z,22.50
2022-10-17T18:52:49.311Z,22.50
2022-10-17T18:54:51.037Z,22.50
2022-10-17T18:56:54.373Z,22.50
2022-10-17T18:58:56.645Z,22.50
2022-10-17T19:01:06.161Z,22.50
2022-10-17T19:03:08.234Z,22.50
2022-10-17T19:05:09.979Z,22.40
2022-10-17T19:07:11.662Z,22.50
2022-10-17T19:09:14.161Z,22.50
2022-10-17T19:11:21.424Z,22.50
2022-10-17T19:13:23.111Z,22.50
2022-10-17T19:15:25.960Z,22.50
2022-10-17T19:17:27.877Z,22.50
2022-10-17T19:19:29.796Z,22.50
2022-10-17T19:21:31.768Z,22.40
2022-10-17T19:23:35.855Z,22.50
2022-10-17T19:25:37.537Z,22.40
2022-10-17T19:27:39.221Z,22.40
2022-10-17T19:29:43.497Z,22.40
2022-10-17T19:31:46.857Z,22.40
2022-10-17T19:33:52.770Z,22.40
2022-10-17T19:35:59.495Z,22.40
2022-10-17T19:38:01.111Z,22.40
2022-10-17T19:40:03.845Z,22.40
2022-10-17T19:42:06.958Z,22.40
2022-10-17T19:44:08.964Z,22.40
2022-10-17T19:46:16.055Z,22.40
2022-10-17T19:48:17.797Z,22.40
2022-10-17T19:50:19.450Z,22.40
2022-10-17T19:52:21.041Z,22.40
2022-10-17T19:54:23.379Z,22.40
2022-10-17T19:56:25.278Z,22.40
2022-10-17T19:58:27.748Z,22.40
2022-10-17T20:00:29.424Z,22.40
2022-10-17T20:02:31.508Z,22.40
2022-10-17T20:04:33.456Z,22.30
2022-10-17T20:06:35.244Z,22.30
2022-10-17T20:08:38.275Z,22.30
2022-10-17T20:10:40.466Z,22.30
2022-10-17T20:12:42.052Z,22.30
2022-10-17T20:14:43.678Z,22.30
2022-10-17T20:16:50.002Z,22.30
2022-10-17T20:18:54.517Z,22.30
2022-10-17T20:20:56.235Z,22.30
2022-10-17T20:22:57.913Z,22.30
2022-10-17T20:24:59.520Z,22.30
2022-10-17T20:27:01.109Z,22.30
2022-10-17T20:29:04.513Z,22.30
2022-10-17T20:31:07.249Z,22.30
2022-10-17T20:33:08.962Z,22.30
2022-10-17T20:35:10.838Z,22.30
2022-10-17T20:37:12.440Z,22.30
2022-10-17T20:39:16.014Z,22.30
2022-10-17T20:41:17.758Z,22.30
2022-10-17T20:43:19.333Z,22.30
2022-10-17T20:45:37.312Z,22.30
2022-10-17T20:47:48.137Z,22.30
2022-10-17T20:49:51.956Z,22.20
2022-10-17T20:51:53.564Z,22.30
2022-10-17T20:56:07.312Z,22.20
2022-10-17T20:58:12.204Z,22.20
2022-10-17T21:00:14.178Z,22.20
2022-10-17T21:02:16.050Z,22.20
2022-10-17T21:04:47.599Z,22.20
2022-10-17T21:06:39.517Z,22.20
2022-10-17T21:08:41.154Z,22.20
2022-10-17T21:10:42.760Z,22.20
2022-10-17T21:12:53.965Z,22.20
2022-10-17T21:14:56.211Z,22.20
2022-10-17T21:17:01.042Z,22.20
2022-10-17T21:19:06.296Z,22.20
2022-10-17T21:21:12.935Z,22.20
2022-10-17T21:23:14.559Z,22.20
2022-10-17T21:25:16.152Z,22.20
2022-10-17T21:27:18.912Z,22.20
2022-10-17T21:29:21.295Z,22.20
2022-10-17T21:31:25.625Z,22.20
2022-10-17T21:33:28.698Z,22.20
2022-10-17T21:35:30.381Z,22.20
2022-10-17T21:37:31.988Z,22.10
2022-10-17T21:39:33.649Z,22.10
2022-10-17T21:41:35.285Z,22.10
2022-10-17T21:43:37.749Z,22.10
2022-10-17T21:45:39.532Z,22.20
2022-10-17T21:47:41.776Z,22.10
2022-10-17T21:49:47.161Z,22.10
2022-10-17T21:51:50.060Z,22.10
2022-10-17T21:53:53.285Z,22.10
2022-10-17T21:55:55.178Z,22.10
2022-10-17T21:57:56.778Z,22.10
2022-10-17T21:59:58.356Z,22.10
2022-10-17T22:01:59.970Z,22.10
2022-10-17T22:04:03.728Z,22.10
2022-10-17T22:06:37.696Z,22.10
2022-10-17T22:08:29.513Z,22.10
2022-10-17T22:10:31.111Z,22.10
2022-10-17T22:12:33.159Z,22.10
2022-10-17T22:14:34.903Z,22.10
2022-10-17T22:16:37.588Z,22.10
2022-10-17T22:18:39.498Z,22.10
2022-10-17T22:20:41.166Z,22.10
2022-10-17T22:22:42.743Z,22.10
2022-10-17T22:24:44.363Z,22.10
2022-10-17T22:26:46.219Z,22.10
2022-10-17T22:28:47.815Z,22.10
2022-10-17T22:30:49.588Z,22.10
2022-10-17T22:32:51.179Z,22.10
2022-10-17T22:34:52.796Z,22.10
2022-10-17T22:36:54.711Z,22.10
2022-10-17T22:38:56.330Z,22.10
2022-10-17T22:40:58.115Z,22.10
2022-10-17T22:42:59.738Z,22.10
2022-10-17T22:45:02.851Z,22.10
2022-10-17T22:47:04.456Z,22.10
2022-10-17T22:49:06.072Z,22.10
2022-10-17T22:51:08.381Z,22.10
2022-10-17T22:53:12.042Z,22.00
2022-10-17T22:55:14.181Z,22.10
2022-10-17T22:57:15.835Z,22.10
2022-10-17T22:59:17.504Z,22.00
2022-10-17T23:01:22.479Z,22.00
2022-10-17T23:03:26.230Z,22.00
2022-10-17T23:05:27.813Z,22.00
2022-10-17T23:07:29.518Z,22.00
2022-10-17T23:09:31.109Z,22.00
2022-10-17T23:11:32.736Z,22.00
2022-10-17T23:13:34.967Z,22.00
2022-10-17T23:15:36.673Z,22.00
2022-10-17T23:17:38.337Z,22.00
2022-10-17T23:19:40.438Z,22.10
2022-10-17T23:21:42.117Z,22.00
2022-10-17T23:23:43.706Z,22.00
2022-10-17T23:25:46.135Z,22.00
2022-10-17T23:27:47.781Z,22.00
2022-10-17T23:29:49.392Z,22.00
2022-10-17T23:31:54.587Z,22.00
2022-10-17T23:33:56.181Z,22.10
2022-10-17T23:35:57.819Z,22.10
2022-10-17T23:37:59.899Z,22.00
2022-10-17T23:40:02.375Z,22.00
2022-10-17T23:42:04.048Z,22.00
2022-10-17T23:44:05.986Z,22.00
2022-10-17T23:46:07.964Z,22.00
2022-10-17T23:48:09.546Z,22.00
2022-10-17T23:50:11.262Z,22.00
2022-10-17T23:52:12.972Z,22.00
2022-10-17T23:54:14.700Z,22.00
2022-10-17T23:56:16.375Z,22.00
2022-10-17T23:58:18.289Z,22.00
